This is the latest recevied weather packets stored in our database for station/object IU3OVK-13. If no packets are shown the sender has not sent any weather packets the latest 10 day(s).
| Time | Temp. | Humidity | Pressure | Rain* | Wind** | Luminosity | Snow |
|---|---|---|---|---|---|---|---|
| 1777510214 | 10.56° C | 99% | 1016.5 hPa | - | - | - | - |
| 1777507733 | 11.11° C | 99% | 1016 hPa | - | - | - | - |
| 1777507113 | 11.67° C | 99% | 1015.7 hPa | - | - | - | - |
| 1777506493 | 11.67° C | 99% | 1015.6 hPa | - | - | - | - |
| 1777505873 | 11.67° C | 99% | 1015.7 hPa | - | - | - | - |
| 1777505252 | 11.11° C | 99% | 1015.7 hPa | - | - | - | - |
| 1777504012 | 11.11° C | 99% | 1015.4 hPa | - | - | - | - |
| 1777503392 | 11.67° C | 99% | 1015.6 hPa | - | - | - | - |
| 1777502772 | 10.56° C | 99% | 1015.9 hPa | - | - | - | - |
| 1777501532 | 11.11° C | 99% | 1015.7 hPa | - | - | - | - |
| 1777500911 | 11.11° C | 99% | 1015.6 hPa | - | - | - | - |
| 1777499671 | 11.11° C | 99% | 1015.9 hPa | - | - | - | - |
| 1777499051 | 11.11° C | 99% | 1015.8 hPa | - | - | - | - |
| 1777498431 | 10.56° C | 99% | 1015.4 hPa | - | - | - | - |
| 1777497812 | 11.11° C | 99% | 1014.6 hPa | - | - | - | - |
| 1777497191 | 11.67° C | 99% | 1014.3 hPa | - | - | - | - |
| 1777496570 | 11.67° C | 99% | 1014.2 hPa | - | - | - | - |
| 1777495950 | 12.22° C | 99% | 1013.8 hPa | - | - | - | - |
| 1777495330 | 12.22° C | 99% | 1013.7 hPa | - | - | - | - |
| 1777492849 | 12.22° C | 99% | 1014 hPa | - | - | - | - |
| 1777492230 | 12.22° C | 99% | 1013.8 hPa | - | - | - | - |
| 1777491609 | 12.78° C | 99% | 1013.2 hPa | - | - | - | - |
| 1777490370 | 12.22° C | 99% | 1013.2 hPa | - | - | - | - |
| 1777489749 | 12.22° C | 99% | 1013 hPa | - | - | - | - |
| 1777489129 | 12.78° C | 99% | 1012.8 hPa | - | - | - | - |
* Rain since midnight (hover to see other rain measurements)
** Current wind speed in m/s (hover to see current wind gust speed)